createdAt,value
2022-08-07T00:03:09.632Z,38.27
2022-08-07T00:08:32.350Z,38.52
2022-08-07T00:13:54.936Z,38.67
2022-08-07T00:19:21.574Z,38.97
2022-08-07T00:24:43.571Z,38.40
2022-08-07T00:30:06.697Z,38.44
2022-08-07T00:35:49.689Z,38.52
2022-08-07T00:41:14.761Z,38.77
2022-08-07T00:46:36.792Z,39.20
2022-08-07T00:51:58.909Z,38.92
2022-08-07T00:57:22.880Z,38.94
2022-08-07T01:02:45.648Z,39.14
2022-08-07T01:08:09.081Z,39.26
2022-08-07T01:13:35.046Z,39.20
2022-08-07T01:18:57.165Z,39.26
2022-08-07T01:24:21.334Z,39.20
2022-08-07T01:29:43.743Z,39.20
2022-08-07T01:35:06.755Z,39.34
2022-08-07T01:40:30.932Z,39.32
2022-08-07T01:45:54.342Z,39.21
2022-08-07T01:52:02.176Z,39.65
2022-08-07T01:58:06.136Z,39.71
2022-08-07T02:03:26.584Z,39.80
2022-08-07T02:09:04.322Z,39.77
2022-08-07T02:14:35.659Z,39.49
2022-08-07T02:20:07.796Z,39.80
2022-08-07T02:26:31.942Z,39.40
2022-08-07T02:31:28.665Z,39.65
2022-08-07T02:36:51.983Z,39.71
2022-08-07T02:42:16.358Z,39.72
2022-08-07T02:47:38.803Z,39.77
2022-08-07T02:53:13.170Z,39.61
2022-08-07T02:58:36.887Z,39.90
2022-08-07T03:04:03.265Z,40.06
2022-08-07T03:09:44.534Z,40.03
2022-08-07T03:15:09.270Z,39.84
2022-08-07T03:20:34.488Z,39.99
2022-08-07T03:26:00.194Z,39.83
2022-08-07T03:31:26.143Z,39.96
2022-08-07T03:37:12.100Z,40.17
2022-08-07T03:42:36.618Z,40.00
2022-08-07T03:47:59.899Z,40.38
2022-08-07T03:54:00.724Z,40.16
2022-08-07T03:59:10.001Z,40.32
2022-08-07T04:04:35.955Z,40.18
2022-08-07T04:09:57.959Z,40.27
2022-08-07T04:15:24.086Z,40.15
2022-08-07T04:20:54.697Z,40.47
2022-08-07T04:26:17.034Z,39.98
2022-08-07T04:32:03.037Z,40.27
2022-08-07T04:37:26.056Z,40.24
2022-08-07T04:42:51.750Z,39.96
2022-08-07T04:48:37.420Z,39.88
2022-08-07T04:54:30.165Z,40.19
2022-08-07T05:00:14.490Z,40.23
2022-08-07T05:05:53.799Z,40.09
2022-08-07T05:11:57.987Z,40.18
2022-08-07T05:17:52.180Z,39.73
2022-08-07T05:23:15.800Z,40.17
2022-08-07T05:28:40.572Z,39.98
2022-08-07T05:34:05.529Z,39.75
2022-08-07T05:40:05.711Z,39.66
2022-08-07T05:45:28.053Z,39.56
2022-08-07T05:51:01.175Z,39.93
2022-08-07T05:56:30.172Z,39.83
2022-08-07T06:01:54.149Z,39.85
2022-08-07T06:07:23.151Z,39.71
2022-08-07T06:13:02.269Z,39.29
2022-08-07T06:18:24.749Z,39.62
2022-08-07T06:24:52.437Z,39.34
2022-08-07T06:29:31.914Z,38.96
2022-08-07T06:34:53.779Z,39.15
2022-08-07T06:40:21.271Z,39.22
2022-08-07T06:45:44.312Z,39.38
2022-08-07T06:51:09.555Z,39.31
2022-08-07T06:56:50.711Z,39.23
2022-08-07T07:02:54.463Z,38.90
2022-08-07T07:08:06.927Z,39.17
2022-08-07T07:13:56.185Z,39.41
2022-08-07T07:19:56.972Z,38.98
2022-08-07T07:26:32.530Z,38.58
2022-08-07T07:31:05.981Z,39.28
2022-08-07T07:36:32.674Z,39.07
2022-08-07T07:42:08.930Z,38.86
2022-08-07T07:47:51.719Z,38.91
2022-08-07T07:53:22.990Z,38.45
2022-08-07T07:58:48.878Z,38.39
2022-08-07T08:04:13.912Z,38.67
2022-08-07T08:09:52.570Z,38.59
2022-08-07T08:15:21.729Z,38.92
2022-08-07T08:20:47.977Z,38.56
2022-08-07T08:26:33.283Z,39.03
2022-08-07T08:32:04.764Z,39.08
2022-08-07T08:38:01.012Z,38.76
2022-08-07T08:43:42.789Z,38.87
2022-08-07T08:49:32.916Z,38.93
2022-08-07T08:55:04.737Z,38.90
2022-08-07T09:00:36.797Z,38.78
2022-08-07T09:06:11.353Z,39.05
2022-08-07T09:11:55.553Z,38.74
2022-08-07T09:17:59.656Z,38.87
2022-08-07T09:24:34.138Z,39.07
2022-08-07T09:30:03.992Z,38.85
2022-08-07T09:36:05.014Z,38.32
2022-08-07T09:41:36.211Z,38.42
2022-08-07T09:47:52.062Z,38.16
2022-08-07T09:53:04.893Z,37.84
2022-08-07T09:58:51.426Z,38.17
2022-08-07T10:04:38.393Z,37.65
2022-08-07T10:10:24.193Z,37.56
2022-08-07T10:16:01.909Z,38.00
2022-08-07T10:22:15.896Z,37.81
2022-08-07T10:28:29.499Z,38.25
2022-08-07T10:34:18.490Z,38.62
2022-08-07T10:40:20.974Z,38.21
2022-08-07T10:45:58.389Z,38.33
2022-08-07T10:52:13.299Z,38.39
2022-08-07T10:58:04.439Z,38.46
2022-08-07T11:03:37.929Z,38.14
2022-08-07T11:10:09.047Z,38.03
2022-08-07T11:15:14.540Z,38.25
2022-08-07T11:20:49.904Z,37.92
2022-08-07T11:26:21.395Z,37.74
2022-08-07T11:31:51.838Z,37.89
2022-08-07T11:37:57.478Z,37.80
2022-08-07T11:43:29.784Z,37.43
2022-08-07T11:50:18.714Z,36.99
2022-08-07T11:56:09.292Z,36.70
2022-08-07T12:01:58.643Z,33.75
2022-08-07T12:07:40.130Z,32.78
2022-08-07T12:13:19.206Z,33.48
2022-08-07T12:19:14.691Z,33.69
2022-08-07T12:26:06.082Z,33.09
2022-08-07T12:31:22.302Z,32.78
2022-08-07T12:36:49.340Z,33.21
2022-08-07T12:42:13.607Z,32.54
2022-08-07T12:47:55.823Z,32.06
2022-08-07T12:53:18.838Z,32.85
2022-08-07T12:58:46.781Z,32.57
2022-08-07T13:04:49.160Z,32.06
2022-08-07T13:10:51.743Z,32.47
2022-08-07T13:16:37.480Z,31.68
2022-08-07T13:22:12.739Z,32.31
2022-08-07T13:28:12.622Z,31.66
2022-08-07T13:34:30.629Z,31.37
2022-08-07T13:40:33.367Z,31.84
2022-08-07T13:46:06.591Z,31.69
2022-08-07T13:51:28.560Z,31.27
2022-08-07T13:56:52.134Z,31.63
2022-08-07T14:02:29.870Z,31.30
2022-08-07T14:08:00.739Z,31.11
2022-08-07T14:13:33.568Z,31.39
2022-08-07T14:18:58.122Z,31.53
2022-08-07T14:24:26.641Z,31.35
2022-08-07T14:30:08.194Z,31.48
2022-08-07T14:35:44.727Z,31.33
2022-08-07T14:52:39.870Z,31.50
2022-08-07T14:58:05.115Z,31.22
2022-08-07T15:03:52.639Z,31.20
2022-08-07T15:09:58.368Z,31.32
2022-08-07T15:15:07.667Z,31.11
2022-08-07T15:20:38.611Z,31.41
2022-08-07T15:32:04.841Z,31.41
2022-08-07T15:43:53.423Z,31.34
2022-08-07T15:54:52.124Z,31.11
2022-08-07T16:00:31.062Z,31.38
2022-08-07T16:05:55.805Z,31.42
2022-08-07T16:11:39.849Z,31.46
2022-08-07T16:18:02.993Z,31.78
2022-08-07T16:23:54.265Z,31.38
2022-08-07T16:30:11.139Z,31.75
2022-08-07T16:35:56.552Z,31.22
2022-08-07T16:41:22.271Z,31.16
2022-08-07T16:47:45.508Z,31.15
2022-08-07T16:54:06.576Z,30.72
2022-08-07T16:59:48.768Z,31.37
2022-08-07T17:06:01.689Z,31.01
2022-08-07T17:11:06.758Z,30.54
2022-08-07T17:16:55.777Z,30.81
2022-08-07T17:22:37.537Z,30.81
2022-08-07T17:28:10.088Z,31.23
2022-08-07T17:34:10.083Z,30.91
2022-08-07T17:39:57.623Z,30.92
2022-08-07T17:45:17.733Z,31.05
2022-08-07T17:50:54.331Z,29.65
2022-08-07T17:56:26.174Z,30.22
2022-08-07T18:02:01.436Z,29.97
2022-08-07T18:07:37.433Z,29.93
2022-08-07T18:13:40.791Z,30.89
2022-08-07T18:21:03.288Z,30.72
2022-08-07T18:25:19.145Z,31.20
2022-08-07T18:30:58.561Z,31.13
2022-08-07T18:36:39.265Z,31.51
2022-08-07T18:42:17.087Z,31.93
2022-08-07T18:48:00.738Z,31.98
2022-08-07T18:53:57.352Z,32.28
2022-08-07T18:59:59.047Z,32.58
2022-08-07T19:06:02.689Z,32.80
2022-08-07T19:11:35.779Z,33.01
2022-08-07T19:17:06.742Z,33.07
2022-08-07T19:22:51.996Z,33.01
2022-08-07T19:28:58.267Z,33.16
2022-08-07T19:34:04.543Z,32.94
2022-08-07T19:39:56.596Z,33.54
2022-08-07T19:46:04.614Z,33.45
2022-08-07T19:51:03.593Z,33.48
2022-08-07T19:57:51.157Z,33.49
2022-08-07T20:02:51.872Z,33.39
2022-08-07T20:08:22.828Z,33.88
2022-08-07T20:13:55.247Z,34.06
2022-08-07T20:19:21.619Z,33.89
2022-08-07T20:24:49.175Z,33.75
2022-08-07T20:30:12.314Z,33.93
2022-08-07T20:35:54.318Z,34.20
2022-08-07T20:41:34.098Z,34.36
2022-08-07T20:47:09.226Z,34.14
2022-08-07T20:52:50.663Z,34.32
2022-08-07T20:58:26.473Z,34.57
2022-08-07T21:04:19.510Z,34.51
2022-08-07T21:09:52.602Z,34.81
2022-08-07T21:15:20.048Z,34.99
2022-08-07T21:21:04.302Z,34.88
2022-08-07T21:27:06.931Z,34.93
2022-08-07T21:33:12.485Z,34.96
2022-08-07T21:38:55.546Z,35.35
2022-08-07T21:44:53.759Z,34.99
2022-08-07T21:50:25.903Z,35.25
2022-08-07T21:56:16.703Z,35.44
2022-08-07T22:02:10.803Z,35.87
2022-08-07T22:07:57.918Z,35.25
2022-08-07T22:13:24.316Z,36.04
2022-08-07T22:19:37.064Z,35.58
2022-08-07T22:25:12.076Z,35.65
2022-08-07T22:30:52.808Z,35.86
2022-08-07T22:36:50.241Z,35.97
2022-08-07T22:42:26.032Z,35.91
2022-08-07T22:48:55.920Z,36.07
2022-08-07T22:54:51.834Z,35.96
2022-08-07T23:00:28.688Z,36.28
2022-08-07T23:06:16.702Z,35.92
2022-08-07T23:12:06.670Z,36.26
2022-08-07T23:17:52.281Z,36.14
2022-08-07T23:24:06.555Z,36.33
2022-08-07T23:30:35.588Z,36.28
2022-08-07T23:35:27.324Z,36.70
2022-08-07T23:41:19.982Z,36.56
2022-08-07T23:47:08.337Z,36.62
2022-08-07T23:52:58.788Z,36.62
2022-08-07T23:58:50.783Z,36.78
